sensor_id;sensor_type;location;lat;lon;timestamp;pressure;altitude;pressure_sealevel;temperature;humidity
53300;BME280;39187;48.476;8.310;2023-05-27T00:01:02;91955.28;;;11.73;77.18
53300;BME280;39187;48.476;8.310;2023-05-27T00:03:28;91953.88;;;11.95;76.08
53300;BME280;39187;48.476;8.310;2023-05-27T00:05:53;91955.13;;;11.56;78.82
53300;BME280;39187;48.476;8.310;2023-05-27T00:08:19;91952.56;;;11.49;78.65
53300;BME280;39187;48.476;8.310;2023-05-27T00:10:44;91943.78;;;11.83;75.63
53300;BME280;39187;48.476;8.310;2023-05-27T00:13:10;91950.47;;;11.64;76.80
53300;BME280;39187;48.476;8.310;2023-05-27T00:15:38;91944.69;;;11.69;76.35
53300;BME280;39187;48.476;8.310;2023-05-27T00:18:03;91950.78;;;11.39;77.34
53300;BME280;39187;48.476;8.310;2023-05-27T00:20:30;91940.59;;;11.61;76.78
53300;BME280;39187;48.476;8.310;2023-05-27T00:22:56;91940.84;;;11.40;78.10
53300;BME280;39187;48.476;8.310;2023-05-27T00:25:22;91937.66;;;11.21;77.87
53300;BME280;39187;48.476;8.310;2023-05-27T00:27:48;91945.09;;;11.37;77.47
53300;BME280;39187;48.476;8.310;2023-05-27T00:30:15;91943.63;;;11.33;77.12
53300;BME280;39187;48.476;8.310;2023-05-27T00:32:41;91954.25;;;11.36;76.84
53300;BME280;39187;48.476;8.310;2023-05-27T00:35:07;91944.06;;;11.27;77.38
53300;BME280;39187;48.476;8.310;2023-05-27T00:37:32;91947.75;;;11.37;77.10
53300;BME280;39187;48.476;8.310;2023-05-27T00:39:58;91941.13;;;11.18;76.76
53300;BME280;39187;48.476;8.310;2023-05-27T00:42:23;91945.56;;;10.95;78.39
53300;BME280;39187;48.476;8.310;2023-05-27T00:44:49;91941.66;;;11.06;78.22
53300;BME280;39187;48.476;8.310;2023-05-27T00:47:15;91940.00;;;10.82;79.39
53300;BME280;39187;48.476;8.310;2023-05-27T00:49:44;91945.44;;;10.71;79.90
53300;BME280;39187;48.476;8.310;2023-05-27T00:52:11;91942.13;;;10.60;79.21
53300;BME280;39187;48.476;8.310;2023-05-27T00:54:40;91947.03;;;10.65;79.15
53300;BME280;39187;48.476;8.310;2023-05-27T00:57:06;91943.28;;;10.59;79.09
53300;BME280;39187;48.476;8.310;2023-05-27T00:59:32;91934.84;;;10.68;78.56
53300;BME280;39187;48.476;8.310;2023-05-27T01:01:57;91939.53;;;10.53;79.66
53300;BME280;39187;48.476;8.310;2023-05-27T01:04:24;91931.94;;;10.52;79.24
53300;BME280;39187;48.476;8.310;2023-05-27T01:07:01;91944.47;;;10.55;78.59
53300;BME280;39187;48.476;8.310;2023-05-27T01:09:49;91933.50;;;10.49;79.05
53300;BME280;39187;48.476;8.310;2023-05-27T01:12:44;91937.31;;;10.48;78.72
53300;BME280;39187;48.476;8.310;2023-05-27T01:15:12;91929.00;;;10.42;79.22
53300;BME280;39187;48.476;8.310;2023-05-27T01:17:38;91923.34;;;10.33;80.06
53300;BME280;39187;48.476;8.310;2023-05-27T01:20:09;91922.28;;;10.27;79.72
53300;BME280;39187;48.476;8.310;2023-05-27T01:22:36;91932.50;;;10.32;78.64
53300;BME280;39187;48.476;8.310;2023-05-27T01:25:02;91919.88;;;10.40;79.09
53300;BME280;39187;48.476;8.310;2023-05-27T01:27:28;91917.72;;;10.28;78.99
53300;BME280;39187;48.476;8.310;2023-05-27T01:29:54;91912.06;;;10.19;79.23
53300;BME280;39187;48.476;8.310;2023-05-27T01:32:28;91911.06;;;10.47;77.94
53300;BME280;39187;48.476;8.310;2023-05-27T01:34:59;91906.75;;;10.22;78.87
53300;BME280;39187;48.476;8.310;2023-05-27T01:37:29;91909.34;;;10.29;78.88
53300;BME280;39187;48.476;8.310;2023-05-27T01:39:56;91909.84;;;10.10;79.53
53300;BME280;39187;48.476;8.310;2023-05-27T01:42:22;91907.91;;;10.14;79.30
53300;BME280;39187;48.476;8.310;2023-05-27T01:44:49;91905.69;;;10.05;79.75
53300;BME280;39187;48.476;8.310;2023-05-27T01:47:15;91900.28;;;10.20;nan
53300;BME280;39187;48.476;8.310;2023-05-27T01:49:40;91903.50;;;9.93;80.36
53300;BME280;39187;48.476;8.310;2023-05-27T01:52:06;91898.47;;;10.10;79.87
53300;BME280;39187;48.476;8.310;2023-05-27T01:54:31;91891.63;;;10.05;80.06
53300;BME280;39187;48.476;8.310;2023-05-27T01:56:57;91890.59;;;9.95;80.28
53300;BME280;39187;48.476;8.310;2023-05-27T01:59:22;91889.06;;;9.94;80.48
53300;BME280;39187;48.476;8.310;2023-05-27T02:01:48;91882.25;;;9.93;80.73
53300;BME280;39187;48.476;8.310;2023-05-27T02:04:13;91894.78;;;9.93;80.62
53300;BME280;39187;48.476;8.310;2023-05-27T02:06:39;91884.78;;;10.11;79.86
53300;BME280;39187;48.476;8.310;2023-05-27T02:09:05;91879.19;;;9.98;80.13
53300;BME280;39187;48.476;8.310;2023-05-27T02:11:31;91881.53;;;9.86;81.29
53300;BME280;39187;48.476;8.310;2023-05-27T02:13:57;91874.25;;;9.93;81.13
53300;BME280;39187;48.476;8.310;2023-05-27T02:16:24;91875.34;;;9.99;80.92
53300;BME280;39187;48.476;8.310;2023-05-27T02:18:50;91874.72;;;9.85;82.28
53300;BME280;39187;48.476;8.310;2023-05-27T02:21:16;91875.88;;;9.80;81.75
53300;BME280;39187;48.476;8.310;2023-05-27T02:23:41;91870.13;;;9.89;81.61
53300;BME280;39187;48.476;8.310;2023-05-27T02:26:07;91875.78;;;9.94;81.86
53300;BME280;39187;48.476;8.310;2023-05-27T02:28:32;91878.25;;;9.68;83.24
53300;BME280;39187;48.476;8.310;2023-05-27T02:30:59;91884.28;;;9.75;83.09
53300;BME280;39187;48.476;8.310;2023-05-27T02:33:25;91871.75;;;9.79;82.57
53300;BME280;39187;48.476;8.310;2023-05-27T02:35:50;91875.88;;;9.84;82.60
53300;BME280;39187;48.476;8.310;2023-05-27T02:38:16;91872.09;;;9.81;82.64
53300;BME280;39187;48.476;8.310;2023-05-27T02:40:41;91867.66;;;9.60;83.74
53300;BME280;39187;48.476;8.310;2023-05-27T02:43:07;91870.34;;;9.60;84.06
53300;BME280;39187;48.476;8.310;2023-05-27T02:45:33;91868.47;;;9.54;84.79
53300;BME280;39187;48.476;8.310;2023-05-27T02:47:59;91869.31;;;9.47;85.54
53300;BME280;39187;48.476;8.310;2023-05-27T02:50:27;91855.66;;;9.45;85.06
53300;BME280;39187;48.476;8.310;2023-05-27T02:52:53;91859.34;;;9.58;85.29
53300;BME280;39187;48.476;8.310;2023-05-27T02:55:19;91860.84;;;9.63;84.58
53300;BME280;39187;48.476;8.310;2023-05-27T02:57:44;91848.44;;;9.46;85.54
53300;BME280;39187;48.476;8.310;2023-05-27T03:00:11;91855.28;;;9.43;86.14
53300;BME280;39187;48.476;8.310;2023-05-27T03:02:37;91868.22;;;9.38;86.58
53300;BME280;39187;48.476;8.310;2023-05-27T03:05:04;91853.84;;;9.32;86.94
53300;BME280;39187;48.476;8.310;2023-05-27T03:07:29;91861.84;;;9.28;87.42
53300;BME280;39187;48.476;8.310;2023-05-27T03:09:56;91861.38;;;9.40;86.77
53300;BME280;39187;48.476;8.310;2023-05-27T03:12:22;91853.03;;;9.38;87.09
53300;BME280;39187;48.476;8.310;2023-05-27T03:14:49;91857.69;;;9.16;88.42
53300;BME280;39187;48.476;8.310;2023-05-27T03:17:14;91845.78;;;9.42;86.95
53300;BME280;39187;48.476;8.310;2023-05-27T03:19:40;91857.97;;;9.36;87.70
53300;BME280;39187;48.476;8.310;2023-05-27T03:22:05;91852.69;;;9.33;88.03
53300;BME280;39187;48.476;8.310;2023-05-27T03:24:32;91867.91;;;9.25;88.27
53300;BME280;39187;48.476;8.310;2023-05-27T03:26:59;91854.66;;;9.18;88.78
53300;BME280;39187;48.476;8.310;2023-05-27T03:29:24;91860.31;;;9.23;88.90
53300;BME280;39187;48.476;8.310;2023-05-27T03:31:50;91855.09;;;9.09;89.49
53300;BME280;39187;48.476;8.310;2023-05-27T03:34:16;91854.66;;;9.18;89.24
53300;BME280;39187;48.476;8.310;2023-05-27T03:36:41;91858.78;;;9.30;88.73
53300;BME280;39187;48.476;8.310;2023-05-27T03:39:11;91862.56;;;9.29;88.75
53300;BME280;39187;48.476;8.310;2023-05-27T03:41:37;91856.19;;;9.15;89.88
53300;BME280;39187;48.476;8.310;2023-05-27T03:44:03;91863.06;;;9.09;90.30
53300;BME280;39187;48.476;8.310;2023-05-27T03:46:28;91863.09;;;9.06;90.35
53300;BME280;39187;48.476;8.310;2023-05-27T03:48:54;91862.31;;;9.09;90.29
53300;BME280;39187;48.476;8.310;2023-05-27T03:51:20;91858.53;;;9.03;90.49
53300;BME280;39187;48.476;8.310;2023-05-27T03:53:47;91858.91;;;9.05;90.62
53300;BME280;39187;48.476;8.310;2023-05-27T03:56:12;91857.34;;;9.11;90.26
53300;BME280;39187;48.476;8.310;2023-05-27T03:58:38;91858.03;;;9.25;89.78
53300;BME280;39187;48.476;8.310;2023-05-27T04:01:03;91857.34;;;9.14;90.36
53300;BME280;39187;48.476;8.310;2023-05-27T04:03:29;91862.31;;;9.09;90.36
53300;BME280;39187;48.476;8.310;2023-05-27T04:05:54;91861.84;;;9.24;90.08
53300;BME280;39187;48.476;8.310;2023-05-27T04:08:22;91855.34;;;9.29;89.47
53300;BME280;39187;48.476;8.310;2023-05-27T04:13:33;91852.56;;;9.50;88.06
53300;BME280;39187;48.476;8.310;2023-05-27T04:15:59;91858.94;;;9.63;87.55
53300;BME280;39187;48.476;8.310;2023-05-27T04:18:24;91855.66;;;9.45;87.68
53300;BME280;39187;48.476;8.310;2023-05-27T04:20:50;91846.59;;;9.87;86.61
53300;BME280;39187;48.476;8.310;2023-05-27T04:23:17;91853.31;;;10.02;85.69
53300;BME280;39187;48.476;8.310;2023-05-27T04:25:43;91852.72;;;9.84;85.62
53300;BME280;39187;48.476;8.310;2023-05-27T04:28:08;91841.00;;;10.23;84.23
53300;BME280;39187;48.476;8.310;2023-05-27T04:30:34;91846.84;;;10.00;84.41
53300;BME280;39187;48.476;8.310;2023-05-27T04:33:01;91852.53;;;10.02;83.75
53300;BME280;39187;48.476;8.310;2023-05-27T04:35:27;91844.81;;;10.22;83.25
53300;BME280;39187;48.476;8.310;2023-05-27T04:37:56;91847.75;;;10.65;81.21
53300;BME280;39187;48.476;8.310;2023-05-27T04:40:24;91845.19;;;10.20;82.81
53300;BME280;39187;48.476;8.310;2023-05-27T04:42:50;91838.63;;;10.66;80.70
53300;BME280;39187;48.476;8.310;2023-05-27T04:45:15;91844.03;;;10.59;80.54
53300;BME280;39187;48.476;8.310;2023-05-27T04:47:41;91842.09;;;11.23;77.05
53300;BME280;39187;48.476;8.310;2023-05-27T04:50:08;91836.72;;;11.27;76.21
53300;BME280;39187;48.476;8.310;2023-05-27T04:52:34;91841.34;;;11.50;76.19
53300;BME280;39187;48.476;8.310;2023-05-27T04:55:09;91836.97;;;11.63;74.13
53300;BME280;39187;48.476;8.310;2023-05-27T04:57:35;91837.69;;;11.40;75.60
53300;BME280;39187;48.476;8.310;2023-05-27T05:00:03;91842.59;;;11.69;74.17
53300;BME280;39187;48.476;8.310;2023-05-27T05:02:34;91847.94;;;11.69;73.58
53300;BME280;39187;48.476;8.310;2023-05-27T05:05:04;91842.47;;;11.79;73.59
53300;BME280;39187;48.476;8.310;2023-05-27T05:07:30;91848.44;;;12.33;70.49
53300;BME280;39187;48.476;8.310;2023-05-27T05:09:56;91843.47;;;11.89;71.38
53300;BME280;39187;48.476;8.310;2023-05-27T05:12:22;91838.25;;;13.27;65.59
53300;BME280;39187;48.476;8.310;2023-05-27T05:14:48;91843.81;;;13.36;64.79
53300;BME280;39187;48.476;8.310;2023-05-27T05:17:13;91840.94;;;13.95;62.18
53300;BME280;39187;48.476;8.310;2023-05-27T05:19:39;91842.00;;;13.65;62.34
53300;BME280;39187;48.476;8.310;2023-05-27T05:22:04;91846.69;;;13.06;64.23
53300;BME280;39187;48.476;8.310;2023-05-27T05:24:30;91850.94;;;12.64;65.90
53300;BME280;39187;48.476;8.310;2023-05-27T05:26:56;91848.03;;;12.55;66.68
53300;BME280;39187;48.476;8.310;2023-05-27T05:29:21;91845.00;;;12.96;67.73
53300;BME280;39187;48.476;8.310;2023-05-27T05:31:47;91847.91;;;13.41;63.58
53300;BME280;39187;48.476;8.310;2023-05-27T05:34:12;91841.19;;;13.33;63.67
53300;BME280;39187;48.476;8.310;2023-05-27T05:36:38;91840.59;;;13.77;63.83
53300;BME280;39187;48.476;8.310;2023-05-27T05:39:04;91843.91;;;14.91;60.04
53300;BME280;39187;48.476;8.310;2023-05-27T05:41:30;91841.25;;;14.30;60.21
53300;BME280;39187;48.476;8.310;2023-05-27T05:43:55;91837.94;;;15.54;56.98
53300;BME280;39187;48.476;8.310;2023-05-27T05:46:21;91838.03;;;15.76;55.76
53300;BME280;39187;48.476;8.310;2023-05-27T05:48:46;91840.31;;;15.77;55.28
53300;BME280;39187;48.476;8.310;2023-05-27T05:51:12;91844.66;;;15.33;56.07
53300;BME280;39187;48.476;8.310;2023-05-27T05:53:37;91843.28;;;15.41;56.29
53300;BME280;39187;48.476;8.310;2023-05-27T05:56:03;91848.03;;;16.60;53.46
53300;BME280;39187;48.476;8.310;2023-05-27T05:58:28;91847.28;;;16.94;51.74
53300;BME280;39187;48.476;8.310;2023-05-27T06:00:54;91841.47;;;17.48;49.40
53300;BME280;39187;48.476;8.310;2023-05-27T06:03:19;91838.25;;;17.10;50.17
53300;BME280;39187;48.476;8.310;2023-05-27T06:05:45;91844.63;;;16.47;52.48
53300;BME280;39187;48.476;8.310;2023-05-27T06:08:11;91839.63;;;17.36;50.56
53300;BME280;39187;48.476;8.310;2023-05-27T06:10:36;91847.81;;;16.55;51.45
53300;BME280;39187;48.476;8.310;2023-05-27T06:13:02;91850.88;;;16.78;51.53
53300;BME280;39187;48.476;8.310;2023-05-27T06:15:27;91857.66;;;16.23;52.33
53300;BME280;39187;48.476;8.310;2023-05-27T06:17:53;91851.16;;;15.61;52.85
53300;BME280;39187;48.476;8.310;2023-05-27T06:20:20;91859.13;;;16.62;52.19
53300;BME280;39187;48.476;8.310;2023-05-27T06:22:45;91855.25;;;16.85;51.04
53300;BME280;39187;48.476;8.310;2023-05-27T06:25:13;91844.31;;;17.23;50.54
53300;BME280;39187;48.476;8.310;2023-05-27T06:27:39;91859.31;;;16.55;51.48
53300;BME280;39187;48.476;8.310;2023-05-27T06:30:05;91843.28;;;16.77;50.96
53300;BME280;39187;48.476;8.310;2023-05-27T06:32:31;91848.72;;;16.26;52.68
53300;BME280;39187;48.476;8.310;2023-05-27T06:34:56;91853.03;;;17.27;50.33
53300;BME280;39187;48.476;8.310;2023-05-27T06:37:22;91851.47;;;16.61;52.25
53300;BME280;39187;48.476;8.310;2023-05-27T06:39:48;91843.00;;;17.80;50.05
53300;BME280;39187;48.476;8.310;2023-05-27T06:42:13;91844.19;;;18.96;47.83
53300;BME280;39187;48.476;8.310;2023-05-27T06:44:39;91854.22;;;18.19;48.44
53300;BME280;39187;48.476;8.310;2023-05-27T06:47:05;91847.66;;;17.80;49.87
53300;BME280;39187;48.476;8.310;2023-05-27T06:49:30;91849.03;;;16.41;54.17
53300;BME280;39187;48.476;8.310;2023-05-27T06:51:56;91843.41;;;17.17;51.25
53300;BME280;39187;48.476;8.310;2023-05-27T06:54:21;91837.06;;;17.11;52.71
53300;BME280;39187;48.476;8.310;2023-05-27T06:56:47;91843.13;;;18.08;50.20
53300;BME280;39187;48.476;8.310;2023-05-27T06:59:12;91843.22;;;17.33;51.26
53300;BME280;39187;48.476;8.310;2023-05-27T07:01:38;91838.22;;;16.32;55.33
53300;BME280;39187;48.476;8.310;2023-05-27T07:04:03;91843.94;;;15.83;55.49
53300;BME280;39187;48.476;8.310;2023-05-27T07:06:29;91853.84;;;16.46;54.78
53300;BME280;39187;48.476;8.310;2023-05-27T07:08:55;91854.13;;;16.14;56.18
53300;BME280;39187;48.476;8.310;2023-05-27T07:11:20;91848.44;;;16.71;54.52
53300;BME280;39187;48.476;8.310;2023-05-27T07:13:47;91846.31;;;16.66;54.53
53300;BME280;39187;48.476;8.310;2023-05-27T07:16:12;91849.09;;;18.12;50.50
53300;BME280;39187;48.476;8.310;2023-05-27T07:18:38;91854.66;;;17.46;51.93
53300;BME280;39187;48.476;8.310;2023-05-27T07:21:03;91864.03;;;16.76;53.61
53300;BME280;39187;48.476;8.310;2023-05-27T07:23:29;91848.88;;;17.88;51.72
53300;BME280;39187;48.476;8.310;2023-05-27T07:25:55;91843.06;;;17.37;52.04
53300;BME280;39187;48.476;8.310;2023-05-27T07:28:20;91848.59;;;16.90;52.79
53300;BME280;39187;48.476;8.310;2023-05-27T07:30:46;91837.78;;;17.55;52.36
53300;BME280;39187;48.476;8.310;2023-05-27T07:33:13;91839.06;;;18.89;50.62
53300;BME280;39187;48.476;8.310;2023-05-27T07:35:38;91844.00;;;17.65;51.45
53300;BME280;39187;48.476;8.310;2023-05-27T07:38:05;91833.91;;;18.45;50.99
53300;BME280;39187;48.476;8.310;2023-05-27T07:40:31;91830.97;;;18.70;50.19
53300;BME280;39187;48.476;8.310;2023-05-27T07:42:57;91838.72;;;18.50;50.28
53300;BME280;39187;48.476;8.310;2023-05-27T07:45:22;91829.19;;;18.86;49.01
53300;BME280;39187;48.476;8.310;2023-05-27T07:47:48;91829.34;;;18.82;50.08
53300;BME280;39187;48.476;8.310;2023-05-27T07:50:13;91836.16;;;17.57;52.65
53300;BME280;39187;48.476;8.310;2023-05-27T07:52:40;91836.00;;;17.83;51.89
53300;BME280;39187;48.476;8.310;2023-05-27T07:55:07;91835.13;;;18.35;49.49
53300;BME280;39187;48.476;8.310;2023-05-27T07:57:32;91831.44;;;19.05;49.21
53300;BME280;39187;48.476;8.310;2023-05-27T07:59:58;91832.78;;;18.82;49.03
53300;BME280;39187;48.476;8.310;2023-05-27T08:02:24;91829.03;;;19.26;48.56
53300;BME280;39187;48.476;8.310;2023-05-27T08:04:51;91837.72;;;19.30;48.14
53300;BME280;39187;48.476;8.310;2023-05-27T08:07:17;91832.22;;;18.11;51.35
53300;BME280;39187;48.476;8.310;2023-05-27T08:09:42;91829.16;;;19.31;49.43
53300;BME280;39187;48.476;8.310;2023-05-27T08:12:08;91828.03;;;20.16;47.63
53300;BME280;39187;48.476;8.310;2023-05-27T08:14:35;91828.53;;;20.29;46.85
53300;BME280;39187;48.476;8.310;2023-05-27T08:17:00;91825.06;;;20.05;48.37
53300;BME280;39187;48.476;8.310;2023-05-27T08:19:27;91825.88;;;19.96;47.78
53300;BME280;39187;48.476;8.310;2023-05-27T08:21:52;91827.78;;;20.62;47.56
53300;BME280;39187;48.476;8.310;2023-05-27T08:24:18;91820.59;;;20.59;46.41
53300;BME280;39187;48.476;8.310;2023-05-27T08:26:47;91828.97;;;20.37;45.73
53300;BME280;39187;48.476;8.310;2023-05-27T08:29:13;91822.47;;;20.44;46.65
53300;BME280;39187;48.476;8.310;2023-05-27T08:31:39;91813.50;;;20.05;46.30
53300;BME280;39187;48.476;8.310;2023-05-27T08:34:05;91822.00;;;19.01;49.11
53300;BME280;39187;48.476;8.310;2023-05-27T08:36:31;91818.22;;;19.26;49.66
53300;BME280;39187;48.476;8.310;2023-05-27T08:38:57;91820.50;;;18.72;49.91
53300;BME280;39187;48.476;8.310;2023-05-27T08:41:23;91826.41;;;18.22;51.73
53300;BME280;39187;48.476;8.310;2023-05-27T08:43:49;91825.84;;;18.45;50.78
53300;BME280;39187;48.476;8.310;2023-05-27T08:46:15;91813.75;;;18.77;50.21
53300;BME280;39187;48.476;8.310;2023-05-27T08:48:42;91811.81;;;19.05;50.35
53300;BME280;39187;48.476;8.310;2023-05-27T08:51:09;91820.69;;;20.08;48.77
53300;BME280;39187;48.476;8.310;2023-05-27T08:53:35;91825.38;;;19.98;47.03
53300;BME280;39187;48.476;8.310;2023-05-27T08:56:01;91811.41;;;19.67;47.46
53300;BME280;39187;48.476;8.310;2023-05-27T08:58:28;91811.59;;;19.45;48.29
53300;BME280;39187;48.476;8.310;2023-05-27T09:00:54;91819.25;;;19.46;47.93
53300;BME280;39187;48.476;8.310;2023-05-27T09:03:20;91826.19;;;19.02;49.87
53300;BME280;39187;48.476;8.310;2023-05-27T09:05:47;91815.94;;;18.33;50.83
53300;BME280;39187;48.476;8.310;2023-05-27T09:08:12;91819.03;;;18.04;52.20
53300;BME280;39187;48.476;8.310;2023-05-27T09:10:39;91823.28;;;18.41;51.60
53300;BME280;39187;48.476;8.310;2023-05-27T09:13:05;91807.63;;;18.67;51.95
53300;BME280;39187;48.476;8.310;2023-05-27T09:15:32;91815.56;;;18.80;52.54
53300;BME280;39187;48.476;8.310;2023-05-27T09:17:57;91818.97;;;19.26;51.33
53300;BME280;39187;48.476;8.310;2023-05-27T09:20:27;91814.31;;;18.54;51.18
53300;BME280;39187;48.476;8.310;2023-05-27T09:23:00;91812.78;;;18.25;52.52
53300;BME280;39187;48.476;8.310;2023-05-27T09:25:27;91828.97;;;18.34;51.34
53300;BME280;39187;48.476;8.310;2023-05-27T09:27:53;91817.78;;;17.96;53.01
53300;BME280;39187;48.476;8.310;2023-05-27T09:30:20;91808.69;;;18.12;52.62
53300;BME280;39187;48.476;8.310;2023-05-27T09:32:47;91807.50;;;18.03;53.65
53300;BME280;39187;48.476;8.310;2023-05-27T09:35:15;91811.50;;;18.66;51.47
53300;BME280;39187;48.476;8.310;2023-05-27T09:37:41;91808.69;;;18.12;52.91
53300;BME280;39187;48.476;8.310;2023-05-27T09:40:10;91802.03;;;18.53;54.11
53300;BME280;39187;48.476;8.310;2023-05-27T09:42:47;91816.66;;;18.15;52.77
53300;BME280;39187;48.476;8.310;2023-05-27T09:45:18;91814.00;;;18.33;53.42
53300;BME280;39187;48.476;8.310;2023-05-27T09:47:52;91804.28;;;18.45;52.58
53300;BME280;39187;48.476;8.310;2023-05-27T09:50:19;91808.63;;;18.52;53.22
53300;BME280;39187;48.476;8.310;2023-05-27T09:52:48;91804.28;;;18.45;53.64
53300;BME280;39187;48.476;8.310;2023-05-27T09:55:15;91800.41;;;17.88;53.52
53300;BME280;39187;48.476;8.310;2023-05-27T09:57:41;91795.66;;;18.68;52.61
53300;BME280;39187;48.476;8.310;2023-05-27T10:00:08;91796.16;;;18.18;54.58
53300;BME280;39187;48.476;8.310;2023-05-27T10:02:40;91795.00;;;18.37;54.14
53300;BME280;39187;48.476;8.310;2023-05-27T10:05:07;91802.72;;;18.08;51.18
53300;BME280;39187;48.476;8.310;2023-05-27T10:07:40;91797.97;;;18.30;53.09
53300;BME280;39187;48.476;8.310;2023-05-27T10:10:12;91792.34;;;17.57;53.42
53300;BME280;39187;48.476;8.310;2023-05-27T10:12:39;91799.09;;;17.61;55.87
53300;BME280;39187;48.476;8.310;2023-05-27T10:15:06;91793.00;;;18.19;53.60
53300;BME280;39187;48.476;8.310;2023-05-27T10:18:04;91795.13;;;18.33;56.12
53300;BME280;39187;48.476;8.310;2023-05-27T10:20:36;91803.97;;;17.76;53.83
53300;BME280;39187;48.476;8.310;2023-05-27T10:23:19;91814.88;;;17.72;54.03
53300;BME280;39187;48.476;8.310;2023-05-27T10:25:53;91797.47;;;17.33;55.65
53300;BME280;39187;48.476;8.310;2023-05-27T10:28:27;91811.13;;;17.48;55.19
53300;BME280;39187;48.476;8.310;2023-05-27T10:31:06;91787.44;;;18.05;56.03
53300;BME280;39187;48.476;8.310;2023-05-27T10:33:36;91788.59;;;17.94;55.22
53300;BME280;39187;48.476;8.310;2023-05-27T10:36:07;91793.44;;;18.09;54.78
53300;BME280;39187;48.476;8.310;2023-05-27T10:38:32;91785.94;;;18.03;54.65
53300;BME280;39187;48.476;8.310;2023-05-27T10:40:59;91777.34;;;18.54;54.68
53300;BME280;39187;48.476;8.310;2023-05-27T10:43:29;91790.06;;;17.86;53.97
53300;BME280;39187;48.476;8.310;2023-05-27T10:46:21;91783.97;;;18.62;51.92
53300;BME280;39187;48.476;8.310;2023-05-27T10:48:47;91780.94;;;19.06;50.43
53300;BME280;39187;48.476;8.310;2023-05-27T10:51:12;91788.94;;;19.33;50.46
53300;BME280;39187;48.476;8.310;2023-05-27T10:53:38;91808.25;;;17.42;50.61
53300;BME280;39187;48.476;8.310;2023-05-27T10:56:04;91806.81;;;17.19;52.40
53300;BME280;39187;48.476;8.310;2023-05-27T10:58:33;91782.00;;;17.15;53.55
53300;BME280;39187;48.476;8.310;2023-05-27T11:01:02;91796.13;;;17.38;54.65
53300;BME280;39187;48.476;8.310;2023-05-27T11:03:32;91787.09;;;17.53;55.24
53300;BME280;39187;48.476;8.310;2023-05-27T11:06:05;91783.84;;;17.28;52.38
53300;BME280;39187;48.476;8.310;2023-05-27T11:08:34;91794.53;;;16.97;52.91
53300;BME280;39187;48.476;8.310;2023-05-27T11:11:11;91792.06;;;16.46;54.51
53300;BME280;39187;48.476;8.310;2023-05-27T11:13:42;91797.16;;;16.66;54.54
53300;BME280;39187;48.476;8.310;2023-05-27T11:16:08;91791.91;;;16.84;54.36
53300;BME280;39187;48.476;8.310;2023-05-27T11:18:38;91823.44;;;16.62;55.79
53300;BME280;39187;48.476;8.310;2023-05-27T11:21:05;91796.06;;;16.76;55.43
53300;BME280;39187;48.476;8.310;2023-05-27T11:23:38;91805.50;;;16.80;53.97
53300;BME280;39187;48.476;8.310;2023-05-27T11:26:25;91783.13;;;16.62;54.76
53300;BME280;39187;48.476;8.310;2023-05-27T11:28:53;91775.56;;;16.69;55.37
53300;BME280;39187;48.476;8.310;2023-05-27T11:31:26;91776.41;;;16.66;54.68
53300;BME280;39187;48.476;8.310;2023-05-27T11:33:52;91764.78;;;16.91;56.05
53300;BME280;39187;48.476;8.310;2023-05-27T11:36:19;91750.47;;;16.72;56.30
53300;BME280;39187;48.476;8.310;2023-05-27T11:41:12;91745.19;;;17.12;54.92
53300;BME280;39187;48.476;8.310;2023-05-27T11:43:50;91746.13;;;17.18;54.00
53300;BME280;39187;48.476;8.310;2023-05-27T11:46:16;91741.47;;;16.88;56.02
53300;BME280;39187;48.476;8.310;2023-05-27T11:48:42;91744.59;;;16.87;55.63
53300;BME280;39187;48.476;8.310;2023-05-27T11:51:10;91732.16;;;16.80;55.40
53300;BME280;39187;48.476;8.310;2023-05-27T11:53:39;91739.09;;;16.90;56.84
53300;BME280;39187;48.476;8.310;2023-05-27T11:56:05;91750.50;;;17.03;56.72
53300;BME280;39187;48.476;8.310;2023-05-27T11:58:31;91748.50;;;17.16;55.67
53300;BME280;39187;48.476;8.310;2023-05-27T12:00:56;91741.16;;;17.08;55.54
53300;BME280;39187;48.476;8.310;2023-05-27T12:03:21;91746.16;;;16.97;55.96
53300;BME280;39187;48.476;8.310;2023-05-27T12:05:47;91739.63;;;16.76;54.73
53300;BME280;39187;48.476;8.310;2023-05-27T12:08:12;91724.09;;;17.11;54.99
53300;BME280;39187;48.476;8.310;2023-05-27T12:10:38;91751.44;;;17.09;53.70
53300;BME280;39187;48.476;8.310;2023-05-27T12:13:05;91729.72;;;17.26;53.55
53300;BME280;39187;48.476;8.310;2023-05-27T12:15:30;91735.69;;;17.30;54.80
53300;BME280;39187;48.476;8.310;2023-05-27T12:17:57;91717.53;;;17.12;56.50
53300;BME280;39187;48.476;8.310;2023-05-27T12:20:23;91731.06;;;17.21;55.18
53300;BME280;39187;48.476;8.310;2023-05-27T12:22:53;91722.22;;;17.20;55.27
53300;BME280;39187;48.476;8.310;2023-05-27T12:25:19;91708.03;;;17.29;55.11
53300;BME280;39187;48.476;8.310;2023-05-27T12:27:44;91712.63;;;17.50;56.66
53300;BME280;39187;48.476;8.310;2023-05-27T12:30:11;91710.50;;;17.94;54.38
53300;BME280;39187;48.476;8.310;2023-05-27T12:32:37;91708.47;;;17.58;54.08
53300;BME280;39187;48.476;8.310;2023-05-27T12:35:04;91700.22;;;17.53;53.34
53300;BME280;39187;48.476;8.310;2023-05-27T12:37:30;91712.31;;;17.48;53.36
53300;BME280;39187;48.476;8.310;2023-05-27T12:39:55;91696.78;;;17.52;54.77
53300;BME280;39187;48.476;8.310;2023-05-27T12:42:21;91698.66;;;17.34;52.99
53300;BME280;39187;48.476;8.310;2023-05-27T12:44:48;91697.88;;;17.64;53.84
53300;BME280;39187;48.476;8.310;2023-05-27T12:47:13;91694.91;;;17.71;55.27
53300;BME280;39187;48.476;8.310;2023-05-27T12:49:39;91709.41;;;17.74;53.29
53300;BME280;39187;48.476;8.310;2023-05-27T12:52:04;91692.06;;;17.75;54.79
53300;BME280;39187;48.476;8.310;2023-05-27T12:54:31;91683.31;;;17.52;54.24
53300;BME280;39187;48.476;8.310;2023-05-27T12:56:57;91690.50;;;17.55;54.48
53300;BME280;39187;48.476;8.310;2023-05-27T12:59:22;91680.75;;;17.49;54.26
53300;BME280;39187;48.476;8.310;2023-05-27T13:01:48;91694.69;;;17.47;54.13
53300;BME280;39187;48.476;8.310;2023-05-27T13:04:13;91684.75;;;17.35;53.62
53300;BME280;39187;48.476;8.310;2023-05-27T13:06:39;91677.03;;;17.46;52.34